sensor_id;sensor_type;location;lat;lon;timestamp;P1;durP1;ratioP1;P2;durP2;ratioP2
83145;SDS011;73037;51.110;4.706;2023-10-09T00:00:50;10.70;;;6.30;;
83145;SDS011;73037;51.110;4.706;2023-10-09T00:03:19;13.55;;;6.65;;
83145;SDS011;73037;51.110;4.706;2023-10-09T00:05:48;15.32;;;6.47;;
83145;SDS011;73037;51.110;4.706;2023-10-09T00:08:18;12.13;;;6.60;;
83145;SDS011;73037;51.110;4.706;2023-10-09T00:10:47;13.65;;;6.53;;
83145;SDS011;73037;51.110;4.706;2023-10-09T00:13:17;11.00;;;6.43;;
83145;SDS011;73037;51.110;4.706;2023-10-09T00:15:44;11.80;;;6.43;;
83145;SDS011;73037;51.110;4.706;2023-10-09T00:18:17;10.90;;;5.88;;
83145;SDS011;73037;51.110;4.706;2023-10-09T00:20:47;11.93;;;6.10;;
83145;SDS011;73037;51.110;4.706;2023-10-09T00:23:19;14.38;;;6.35;;
83145;SDS011;73037;51.110;4.706;2023-10-09T00:25:48;12.70;;;6.10;;
83145;SDS011;73037;51.110;4.706;2023-10-09T00:28:31;11.32;;;6.53;;
83145;SDS011;73037;51.110;4.706;2023-10-09T00:30:59;11.90;;;6.20;;
83145;SDS011;73037;51.110;4.706;2023-10-09T00:33:29;12.52;;;5.70;;
83145;SDS011;73037;51.110;4.706;2023-10-09T00:35:55;10.73;;;6.53;;
83145;SDS011;73037;51.110;4.706;2023-10-09T00:38:20;10.23;;;6.18;;
83145;SDS011;73037;51.110;4.706;2023-10-09T00:40:46;13.40;;;6.18;;
83145;SDS011;73037;51.110;4.706;2023-10-09T00:43:21;12.25;;;6.60;;
83145;SDS011;73037;51.110;4.706;2023-10-09T00:45:53;13.38;;;6.07;;
83145;SDS011;73037;51.110;4.706;2023-10-09T00:48:19;16.15;;;6.38;;
83145;SDS011;73037;51.110;4.706;2023-10-09T00:50:56;12.43;;;6.03;;
83145;SDS011;73037;51.110;4.706;2023-10-09T00:53:25;13.27;;;6.30;;
83145;SDS011;73037;51.110;4.706;2023-10-09T00:55:58;12.68;;;6.18;;
83145;SDS011;73037;51.110;4.706;2023-10-09T00:58:29;14.10;;;6.32;;
83145;SDS011;73037;51.110;4.706;2023-10-09T01:00:59;9.75;;;6.18;;
83145;SDS011;73037;51.110;4.706;2023-10-09T01:03:25;11.45;;;6.28;;
83145;SDS011;73037;51.110;4.706;2023-10-09T01:05:53;11.95;;;6.10;;
83145;SDS011;73037;51.110;4.706;2023-10-09T01:08:24;12.93;;;6.10;;
83145;SDS011;73037;51.110;4.706;2023-10-09T01:11:15;15.90;;;7.68;;
83145;SDS011;73037;51.110;4.706;2023-10-09T01:13:54;14.00;;;8.05;;
83145;SDS011;73037;51.110;4.706;2023-10-09T01:16:28;15.20;;;8.70;;
83145;SDS011;73037;51.110;4.706;2023-10-09T01:18:56;65.47;;;39.20;;
83145;SDS011;73037;51.110;4.706;2023-10-09T01:21:22;54.10;;;34.33;;
83145;SDS011;73037;51.110;4.706;2023-10-09T01:23:54;88.35;;;52.90;;
83145;SDS011;73037;51.110;4.706;2023-10-09T01:26:33;29.60;;;18.40;;
83145;SDS011;73037;51.110;4.706;2023-10-09T01:29:20;33.55;;;22.15;;
83145;SDS011;73037;51.110;4.706;2023-10-09T01:31:50;29.13;;;16.33;;
83145;SDS011;73037;51.110;4.706;2023-10-09T01:36:49;22.95;;;14.40;;
83145;SDS011;73037;51.110;4.706;2023-10-09T01:39:19;17.17;;;8.60;;
83145;SDS011;73037;51.110;4.706;2023-10-09T01:41:53;15.02;;;7.97;;
83145;SDS011;73037;51.110;4.706;2023-10-09T01:44:31;9.88;;;6.05;;
83145;SDS011;73037;51.110;4.706;2023-10-09T01:47:01;12.00;;;6.15;;
83145;SDS011;73037;51.110;4.706;2023-10-09T01:49:32;9.60;;;6.05;;
83145;SDS011;73037;51.110;4.706;2023-10-09T01:52:09;12.98;;;6.78;;
83145;SDS011;73037;51.110;4.706;2023-10-09T01:54:38;10.98;;;6.13;;
83145;SDS011;73037;51.110;4.706;2023-10-09T01:57:12;11.07;;;6.00;;
83145;SDS011;73037;51.110;4.706;2023-10-09T01:59:38;11.68;;;6.18;;
83145;SDS011;73037;51.110;4.706;2023-10-09T02:02:09;12.48;;;5.78;;
83145;SDS011;73037;51.110;4.706;2023-10-09T02:04:57;12.45;;;6.80;;
83145;SDS011;73037;51.110;4.706;2023-10-09T02:07:35;14.13;;;6.47;;
83145;SDS011;73037;51.110;4.706;2023-10-09T02:10:09;12.50;;;6.53;;
83145;SDS011;73037;51.110;4.706;2023-10-09T02:12:58;12.55;;;6.50;;
83145;SDS011;73037;51.110;4.706;2023-10-09T02:15:28;13.18;;;6.40;;
83145;SDS011;73037;51.110;4.706;2023-10-09T02:18:17;10.82;;;5.63;;
83145;SDS011;73037;51.110;4.706;2023-10-09T02:21:05;10.77;;;5.45;;
83145;SDS011;73037;51.110;4.706;2023-10-09T02:23:32;17.63;;;7.88;;
83145;SDS011;73037;51.110;4.706;2023-10-09T02:26:14;9.80;;;5.47;;
83145;SDS011;73037;51.110;4.706;2023-10-09T02:28:50;11.20;;;5.53;;
83145;SDS011;73037;51.110;4.706;2023-10-09T02:31:28;11.75;;;5.72;;
83145;SDS011;73037;51.110;4.706;2023-10-09T02:34:06;11.30;;;5.28;;
83145;SDS011;73037;51.110;4.706;2023-10-09T02:36:40;14.63;;;9.70;;
83145;SDS011;73037;51.110;4.706;2023-10-09T02:39:14;15.27;;;9.05;;
83145;SDS011;73037;51.110;4.706;2023-10-09T02:41:53;12.30;;;9.30;;
83145;SDS011;73037;51.110;4.706;2023-10-09T02:44:25;12.55;;;7.50;;
83145;SDS011;73037;51.110;4.706;2023-10-09T02:46:51;10.88;;;5.97;;
83145;SDS011;73037;51.110;4.706;2023-10-09T02:49:22;11.30;;;5.90;;
83145;SDS011;73037;51.110;4.706;2023-10-09T02:51:49;10.75;;;5.75;;
83145;SDS011;73037;51.110;4.706;2023-10-09T02:54:18;11.38;;;5.88;;
83145;SDS011;73037;51.110;4.706;2023-10-09T02:56:47;13.98;;;5.85;;
83145;SDS011;73037;51.110;4.706;2023-10-09T02:59:20;11.27;;;5.78;;
83145;SDS011;73037;51.110;4.706;2023-10-09T03:01:49;11.38;;;5.72;;
83145;SDS011;73037;51.110;4.706;2023-10-09T03:04:17;9.85;;;5.63;;
83145;SDS011;73037;51.110;4.706;2023-10-09T03:06:44;9.63;;;5.65;;
83145;SDS011;73037;51.110;4.706;2023-10-09T03:09:19;13.20;;;5.25;;
83145;SDS011;73037;51.110;4.706;2023-10-09T03:11:52;14.10;;;6.63;;
83145;SDS011;73037;51.110;4.706;2023-10-09T03:14:27;9.68;;;5.90;;
83145;SDS011;73037;51.110;4.706;2023-10-09T03:16:57;12.93;;;5.70;;
83145;SDS011;73037;51.110;4.706;2023-10-09T03:19:25;9.45;;;5.22;;
83145;SDS011;73037;51.110;4.706;2023-10-09T03:21:51;10.40;;;5.85;;
83145;SDS011;73037;51.110;4.706;2023-10-09T03:24:17;11.10;;;5.32;;
83145;SDS011;73037;51.110;4.706;2023-10-09T03:26:47;10.68;;;5.47;;
83145;SDS011;73037;51.110;4.706;2023-10-09T03:29:14;12.93;;;5.65;;
83145;SDS011;73037;51.110;4.706;2023-10-09T03:31:40;11.00;;;5.05;;
83145;SDS011;73037;51.110;4.706;2023-10-09T03:34:08;11.77;;;5.93;;
83145;SDS011;73037;51.110;4.706;2023-10-09T03:36:35;11.75;;;5.90;;
83145;SDS011;73037;51.110;4.706;2023-10-09T03:39:05;9.32;;;5.75;;
83145;SDS011;73037;51.110;4.706;2023-10-09T03:41:43;9.20;;;5.10;;
83145;SDS011;73037;51.110;4.706;2023-10-09T03:44:12;9.07;;;5.03;;
83145;SDS011;73037;51.110;4.706;2023-10-09T03:46:39;12.93;;;5.75;;
83145;SDS011;73037;51.110;4.706;2023-10-09T03:49:09;13.13;;;5.75;;
83145;SDS011;73037;51.110;4.706;2023-10-09T03:51:37;9.07;;;5.63;;
83145;SDS011;73037;51.110;4.706;2023-10-09T03:54:04;11.05;;;5.75;;
83145;SDS011;73037;51.110;4.706;2023-10-09T03:56:33;11.88;;;6.35;;
83145;SDS011;73037;51.110;4.706;2023-10-09T03:58:59;12.32;;;6.00;;
83145;SDS011;73037;51.110;4.706;2023-10-09T04:01:26;10.18;;;6.05;;
83145;SDS011;73037;51.110;4.706;2023-10-09T04:04:02;10.55;;;5.85;;
83145;SDS011;73037;51.110;4.706;2023-10-09T04:06:31;14.35;;;6.47;;
83145;SDS011;73037;51.110;4.706;2023-10-09T04:09:04;11.80;;;5.38;;
83145;SDS011;73037;51.110;4.706;2023-10-09T04:11:43;13.57;;;5.60;;
83145;SDS011;73037;51.110;4.706;2023-10-09T04:14:15;12.70;;;5.75;;
83145;SDS011;73037;51.110;4.706;2023-10-09T04:16:51;13.00;;;5.82;;
83145;SDS011;73037;51.110;4.706;2023-10-09T04:19:17;13.00;;;6.78;;
83145;SDS011;73037;51.110;4.706;2023-10-09T04:21:47;16.17;;;6.57;;
83145;SDS011;73037;51.110;4.706;2023-10-09T04:24:13;18.23;;;7.40;;
83145;SDS011;73037;51.110;4.706;2023-10-09T04:26:42;9.60;;;6.28;;
83145;SDS011;73037;51.110;4.706;2023-10-09T04:29:15;12.70;;;6.40;;
83145;SDS011;73037;51.110;4.706;2023-10-09T04:31:54;12.88;;;6.03;;
83145;SDS011;73037;51.110;4.706;2023-10-09T04:34:24;17.35;;;6.82;;
83145;SDS011;73037;51.110;4.706;2023-10-09T04:36:53;13.35;;;6.57;;
83145;SDS011;73037;51.110;4.706;2023-10-09T04:39:39;13.80;;;7.28;;
83145;SDS011;73037;51.110;4.706;2023-10-09T04:42:15;13.60;;;6.97;;
83145;SDS011;73037;51.110;4.706;2023-10-09T04:44:45;17.02;;;8.30;;
83145;SDS011;73037;51.110;4.706;2023-10-09T04:47:37;16.08;;;7.43;;
83145;SDS011;73037;51.110;4.706;2023-10-09T04:50:22;14.02;;;7.78;;
83145;SDS011;73037;51.110;4.706;2023-10-09T04:52:54;16.30;;;7.93;;
83145;SDS011;73037;51.110;4.706;2023-10-09T04:55:20;14.85;;;8.13;;
83145;SDS011;73037;51.110;4.706;2023-10-09T04:57:50;12.45;;;7.25;;
83145;SDS011;73037;51.110;4.706;2023-10-09T05:00:26;14.68;;;7.85;;
83145;SDS011;73037;51.110;4.706;2023-10-09T05:02:55;15.63;;;7.88;;
83145;SDS011;73037;51.110;4.706;2023-10-09T05:05:38;13.32;;;7.22;;
83145;SDS011;73037;51.110;4.706;2023-10-09T05:08:08;14.80;;;9.02;;
83145;SDS011;73037;51.110;4.706;2023-10-09T05:10:47;14.52;;;8.18;;
83145;SDS011;73037;51.110;4.706;2023-10-09T05:16:04;17.83;;;8.07;;
83145;SDS011;73037;51.110;4.706;2023-10-09T05:18:30;15.35;;;8.13;;
83145;SDS011;73037;51.110;4.706;2023-10-09T05:21:02;15.85;;;9.15;;
83145;SDS011;73037;51.110;4.706;2023-10-09T05:23:51;14.55;;;8.15;;
83145;SDS011;73037;51.110;4.706;2023-10-09T05:26:35;14.68;;;8.82;;
83145;SDS011;73037;51.110;4.706;2023-10-09T05:31:49;16.88;;;8.55;;
83145;SDS011;73037;51.110;4.706;2023-10-09T05:34:34;16.70;;;9.02;;
83145;SDS011;73037;51.110;4.706;2023-10-09T05:37:20;16.23;;;8.73;;
83145;SDS011;73037;51.110;4.706;2023-10-09T05:39:57;15.70;;;8.52;;
83145;SDS011;73037;51.110;4.706;2023-10-09T05:42:27;15.20;;;8.98;;
83145;SDS011;73037;51.110;4.706;2023-10-09T05:45:17;17.13;;;9.23;;
83145;SDS011;73037;51.110;4.706;2023-10-09T05:47:48;16.05;;;8.77;;
83145;SDS011;73037;51.110;4.706;2023-10-09T05:50:18;16.25;;;8.73;;
83145;SDS011;73037;51.110;4.706;2023-10-09T05:52:47;16.77;;;8.68;;
83145;SDS011;73037;51.110;4.706;2023-10-09T05:55:16;19.20;;;10.70;;
83145;SDS011;73037;51.110;4.706;2023-10-09T05:57:52;19.88;;;10.88;;
83145;SDS011;73037;51.110;4.706;2023-10-09T06:00:24;19.35;;;11.57;;
83145;SDS011;73037;51.110;4.706;2023-10-09T06:03:09;19.02;;;10.25;;
83145;SDS011;73037;51.110;4.706;2023-10-09T06:05:44;18.88;;;10.38;;
83145;SDS011;73037;51.110;4.706;2023-10-09T06:08:24;22.30;;;11.10;;
83145;SDS011;73037;51.110;4.706;2023-10-09T06:11:13;22.23;;;11.65;;
83145;SDS011;73037;51.110;4.706;2023-10-09T06:13:59;19.60;;;10.63;;
83145;SDS011;73037;51.110;4.706;2023-10-09T06:16:38;19.23;;;10.60;;
83145;SDS011;73037;51.110;4.706;2023-10-09T06:19:07;19.02;;;9.82;;
83145;SDS011;73037;51.110;4.706;2023-10-09T06:21:51;19.90;;;11.13;;
83145;SDS011;73037;51.110;4.706;2023-10-09T06:24:39;21.75;;;12.05;;
83145;SDS011;73037;51.110;4.706;2023-10-09T06:27:19;19.77;;;11.13;;
83145;SDS011;73037;51.110;4.706;2023-10-09T06:29:51;21.05;;;11.63;;
83145;SDS011;73037;51.110;4.706;2023-10-09T06:32:37;20.70;;;12.80;;
83145;SDS011;73037;51.110;4.706;2023-10-09T06:35:14;20.67;;;10.95;;
83145;SDS011;73037;51.110;4.706;2023-10-09T06:37:47;20.40;;;10.90;;
83145;SDS011;73037;51.110;4.706;2023-10-09T06:40:26;18.23;;;10.15;;
83145;SDS011;73037;51.110;4.706;2023-10-09T06:43:11;19.35;;;10.25;;
83145;SDS011;73037;51.110;4.706;2023-10-09T06:45:43;18.70;;;10.30;;
83145;SDS011;73037;51.110;4.706;2023-10-09T06:48:09;24.42;;;12.43;;
83145;SDS011;73037;51.110;4.706;2023-10-09T06:50:54;21.65;;;11.02;;
83145;SDS011;73037;51.110;4.706;2023-10-09T06:53:43;24.25;;;10.90;;
83145;SDS011;73037;51.110;4.706;2023-10-09T06:56:18;23.70;;;12.27;;
83145;SDS011;73037;51.110;4.706;2023-10-09T06:59:00;23.45;;;11.15;;
83145;SDS011;73037;51.110;4.706;2023-10-09T07:01:40;25.25;;;12.00;;
83145;SDS011;73037;51.110;4.706;2023-10-09T07:04:12;20.55;;;11.27;;
83145;SDS011;73037;51.110;4.706;2023-10-09T07:06:47;20.60;;;11.35;;
83145;SDS011;73037;51.110;4.706;2023-10-09T07:09:15;17.73;;;9.02;;
83145;SDS011;73037;51.110;4.706;2023-10-09T07:11:47;22.27;;;10.88;;
83145;SDS011;73037;51.110;4.706;2023-10-09T07:14:22;18.80;;;10.80;;
83145;SDS011;73037;51.110;4.706;2023-10-09T07:16:58;21.58;;;10.82;;
83145;SDS011;73037;51.110;4.706;2023-10-09T07:19:28;22.67;;;11.60;;
83145;SDS011;73037;51.110;4.706;2023-10-09T07:22:20;17.73;;;10.68;;
83145;SDS011;73037;51.110;4.706;2023-10-09T07:24:49;18.00;;;10.13;;
83145;SDS011;73037;51.110;4.706;2023-10-09T07:27:30;22.08;;;12.13;;
83145;SDS011;73037;51.110;4.706;2023-10-09T07:30:10;21.13;;;10.95;;
83145;SDS011;73037;51.110;4.706;2023-10-09T07:32:58;20.98;;;11.60;;
83145;SDS011;73037;51.110;4.706;2023-10-09T07:35:38;17.83;;;10.20;;
83145;SDS011;73037;51.110;4.706;2023-10-09T07:38:09;17.38;;;11.25;;
83145;SDS011;73037;51.110;4.706;2023-10-09T07:40:39;19.77;;;11.60;;
83145;SDS011;73037;51.110;4.706;2023-10-09T07:43:25;19.77;;;11.52;;
83145;SDS011;73037;51.110;4.706;2023-10-09T07:45:56;20.98;;;11.88;;
83145;SDS011;73037;51.110;4.706;2023-10-09T07:48:22;20.63;;;10.90;;
83145;SDS011;73037;51.110;4.706;2023-10-09T07:50:50;19.23;;;10.68;;
83145;SDS011;73037;51.110;4.706;2023-10-09T07:53:22;20.83;;;10.82;;
83145;SDS011;73037;51.110;4.706;2023-10-09T07:55:53;20.00;;;11.32;;
83145;SDS011;73037;51.110;4.706;2023-10-09T07:58:21;22.38;;;11.60;;
83145;SDS011;73037;51.110;4.706;2023-10-09T08:00:57;22.17;;;11.45;;
83145;SDS011;73037;51.110;4.706;2023-10-09T08:03:33;26.17;;;10.82;;
83145;SDS011;73037;51.110;4.706;2023-10-09T08:06:01;16.58;;;10.45;;
83145;SDS011;73037;51.110;4.706;2023-10-09T08:08:52;20.13;;;11.30;;
83145;SDS011;73037;51.110;4.706;2023-10-09T08:11:27;17.60;;;10.95;;
83145;SDS011;73037;51.110;4.706;2023-10-09T08:14:06;18.23;;;9.82;;
83145;SDS011;73037;51.110;4.706;2023-10-09T08:16:46;18.95;;;10.93;;
83145;SDS011;73037;51.110;4.706;2023-10-09T08:19:17;19.27;;;10.93;;
83145;SDS011;73037;51.110;4.706;2023-10-09T08:21:58;17.80;;;10.35;;
83145;SDS011;73037;51.110;4.706;2023-10-09T08:25:02;20.55;;;10.80;;
83145;SDS011;73037;51.110;4.706;2023-10-09T08:27:28;19.88;;;11.30;;
83145;SDS011;73037;51.110;4.706;2023-10-09T08:29:55;17.58;;;10.93;;
83145;SDS011;73037;51.110;4.706;2023-10-09T08:32:43;18.50;;;10.65;;
83145;SDS011;73037;51.110;4.706;2023-10-09T08:35:33;18.15;;;10.27;;
83145;SDS011;73037;51.110;4.706;2023-10-09T08:38:00;18.13;;;10.18;;
83145;SDS011;73037;51.110;4.706;2023-10-09T08:40:42;15.98;;;9.73;;
83145;SDS011;73037;51.110;4.706;2023-10-09T08:43:17;15.75;;;10.32;;
83145;SDS011;73037;51.110;4.706;2023-10-09T08:48:14;18.58;;;10.75;;
83145;SDS011;73037;51.110;4.706;2023-10-09T08:50:46;18.27;;;10.18;;
83145;SDS011;73037;51.110;4.706;2023-10-09T08:53:15;21.73;;;11.30;;
83145;SDS011;73037;51.110;4.706;2023-10-09T08:55:42;21.80;;;11.07;;
83145;SDS011;73037;51.110;4.706;2023-10-09T08:58:09;20.05;;;10.88;;
83145;SDS011;73037;51.110;4.706;2023-10-09T09:00:44;18.55;;;10.95;;
83145;SDS011;73037;51.110;4.706;2023-10-09T09:03:37;19.23;;;11.68;;
83145;SDS011;73037;51.110;4.706;2023-10-09T09:06:04;17.83;;;10.80;;
83145;SDS011;73037;51.110;4.706;2023-10-09T09:08:31;17.70;;;11.13;;
83145;SDS011;73037;51.110;4.706;2023-10-09T09:11:02;16.13;;;9.68;;
83145;SDS011;73037;51.110;4.706;2023-10-09T09:13:40;21.40;;;9.85;;
83145;SDS011;73037;51.110;4.706;2023-10-09T09:21:33;17.02;;;10.90;;
83145;SDS011;73037;51.110;4.706;2023-10-09T09:24:07;18.13;;;9.20;;
83145;SDS011;73037;51.110;4.706;2023-10-09T09:26:46;16.95;;;10.60;;
83145;SDS011;73037;51.110;4.706;2023-10-09T09:29:13;18.45;;;10.52;;
83145;SDS011;73037;51.110;4.706;2023-10-09T09:31:55;16.88;;;9.63;;
83145;SDS011;73037;51.110;4.706;2023-10-09T09:34:22;22.40;;;10.00;;
83145;SDS011;73037;51.110;4.706;2023-10-09T09:36:54;17.10;;;10.10;;
83145;SDS011;73037;51.110;4.706;2023-10-09T09:39:23;14.50;;;9.43;;
83145;SDS011;73037;51.110;4.706;2023-10-09T09:41:57;14.70;;;9.90;;
83145;SDS011;73037;51.110;4.706;2023-10-09T09:44:35;17.63;;;9.18;;
83145;SDS011;73037;51.110;4.706;2023-10-09T09:47:15;16.15;;;9.32;;
83145;SDS011;73037;51.110;4.706;2023-10-09T09:49:49;16.70;;;10.52;;
83145;SDS011;73037;51.110;4.706;2023-10-09T09:52:18;15.18;;;9.40;;
83145;SDS011;73037;51.110;4.706;2023-10-09T09:54:44;13.98;;;8.77;;
83145;SDS011;73037;51.110;4.706;2023-10-09T09:57:14;15.25;;;9.07;;
83145;SDS011;73037;51.110;4.706;2023-10-09T09:59:51;16.77;;;9.88;;
83145;SDS011;73037;51.110;4.706;2023-10-09T10:02:32;16.65;;;9.70;;
83145;SDS011;73037;51.110;4.706;2023-10-09T10:05:04;14.90;;;9.23;;
83145;SDS011;73037;51.110;4.706;2023-10-09T10:07:32;16.52;;;9.52;;
83145;SDS011;73037;51.110;4.706;2023-10-09T10:13:04;13.77;;;7.93;;
83145;SDS011;73037;51.110;4.706;2023-10-09T10:15:56;12.93;;;8.32;;
83145;SDS011;73037;51.110;4.706;2023-10-09T10:18:22;16.15;;;8.73;;
83145;SDS011;73037;51.110;4.706;2023-10-09T10:21:09;13.35;;;8.32;;
83145;SDS011;73037;51.110;4.706;2023-10-09T10:24:01;13.32;;;7.97;;
83145;SDS011;73037;51.110;4.706;2023-10-09T10:26:31;15.43;;;8.63;;
83145;SDS011;73037;51.110;4.706;2023-10-09T10:31:55;15.38;;;8.80;;
83145;SDS011;73037;51.110;4.706;2023-10-09T10:34:23;13.60;;;7.75;;
83145;SDS011;73037;51.110;4.706;2023-10-09T10:36:50;16.80;;;8.23;;
83145;SDS011;73037;51.110;4.706;2023-10-09T10:39:17;14.35;;;7.65;;
83145;SDS011;73037;51.110;4.706;2023-10-09T10:41:56;13.23;;;8.20;;
83145;SDS011;73037;51.110;4.706;2023-10-09T10:44:28;14.98;;;8.02;;
83145;SDS011;73037;51.110;4.706;2023-10-09T10:47:07;14.95;;;8.30;;
83145;SDS011;73037;51.110;4.706;2023-10-09T10:50:01;15.10;;;8.30;;
83145;SDS011;73037;51.110;4.706;2023-10-09T10:52:46;13.18;;;8.10;;
83145;SDS011;73037;51.110;4.706;2023-10-09T10:55:22;14.43;;;8.75;;
83145;SDS011;73037;51.110;4.706;2023-10-09T10:58:00;16.45;;;9.02;;
83145;SDS011;73037;51.110;4.706;2023-10-09T11:00:28;11.88;;;8.48;;
83145;SDS011;73037;51.110;4.706;2023-10-09T11:03:18;16.90;;;8.73;;
83145;SDS011;73037;51.110;4.706;2023-10-09T11:05:54;15.18;;;8.80;;
83145;SDS011;73037;51.110;4.706;2023-10-09T11:08:24;14.15;;;8.65;;
83145;SDS011;73037;51.110;4.706;2023-10-09T11:11:10;16.15;;;8.90;;
83145;SDS011;73037;51.110;4.706;2023-10-09T11:13:41;12.55;;;8.02;;
83145;SDS011;73037;51.110;4.706;2023-10-09T11:16:27;16.08;;;8.10;;
83145;SDS011;73037;51.110;4.706;2023-10-09T11:18:57;13.05;;;7.93;;
83145;SDS011;73037;51.110;4.706;2023-10-09T11:21:29;14.13;;;8.68;;
83145;SDS011;73037;51.110;4.706;2023-10-09T11:23:57;18.05;;;9.63;;
83145;SDS011;73037;51.110;4.706;2023-10-09T11:26:24;16.08;;;8.88;;
83145;SDS011;73037;51.110;4.706;2023-10-09T11:29:09;17.58;;;10.00;;
83145;SDS011;73037;51.110;4.706;2023-10-09T11:31:42;14.35;;;9.23;;
83145;SDS011;73037;51.110;4.706;2023-10-09T11:34:30;16.73;;;9.70;;
83145;SDS011;73037;51.110;4.706;2023-10-09T11:37:00;18.92;;;9.45;;
83145;SDS011;73037;51.110;4.706;2023-10-09T11:39:37;19.23;;;10.20;;
83145;SDS011;73037;51.110;4.706;2023-10-09T11:42:17;14.70;;;10.05;;
83145;SDS011;73037;51.110;4.706;2023-10-09T11:45:03;16.65;;;9.68;;
83145;SDS011;73037;51.110;4.706;2023-10-09T11:47:50;14.50;;;9.63;;
83145;SDS011;73037;51.110;4.706;2023-10-09T11:50:43;16.23;;;9.52;;
83145;SDS011;73037;51.110;4.706;2023-10-09T11:53:16;16.17;;;10.02;;
83145;SDS011;73037;51.110;4.706;2023-10-09T11:55:46;17.38;;;9.65;;
83145;SDS011;73037;51.110;4.706;2023-10-09T11:58:14;15.30;;;8.90;;
83145;SDS011;73037;51.110;4.706;2023-10-09T12:00:52;16.48;;;9.10;;
83145;SDS011;73037;51.110;4.706;2023-10-09T12:03:27;20.70;;;9.48;;
83145;SDS011;73037;51.110;4.706;2023-10-09T12:05:57;14.93;;;9.90;;
83145;SDS011;73037;51.110;4.706;2023-10-09T12:08:37;20.33;;;11.00;;
83145;SDS011;73037;51.110;4.706;2023-10-09T12:11:05;15.35;;;9.70;;
83145;SDS011;73037;51.110;4.706;2023-10-09T12:13:36;17.70;;;10.68;;
83145;SDS011;73037;51.110;4.706;2023-10-09T12:16:07;19.52;;;11.55;;
83145;SDS011;73037;51.110;4.706;2023-10-09T12:18:36;18.20;;;10.43;;
83145;SDS011;73037;51.110;4.706;2023-10-09T12:21:04;19.85;;;10.90;;
83145;SDS011;73037;51.110;4.706;2023-10-09T12:23:31;16.90;;;10.95;;
83145;SDS011;73037;51.110;4.706;2023-10-09T12:26:04;20.17;;;10.70;;
83145;SDS011;73037;51.110;4.706;2023-10-09T12:28:30;16.65;;;10.60;;
83145;SDS011;73037;51.110;4.706;2023-10-09T12:30:58;18.73;;;11.05;;
83145;SDS011;73037;51.110;4.706;2023-10-09T12:33:26;19.83;;;12.00;;
83145;SDS011;73037;51.110;4.706;2023-10-09T12:35:53;18.73;;;10.80;;
83145;SDS011;73037;51.110;4.706;2023-10-09T12:38:25;23.92;;;12.02;;
83145;SDS011;73037;51.110;4.706;2023-10-09T12:41:01;21.27;;;12.35;;
83145;SDS011;73037;51.110;4.706;2023-10-09T12:43:33;18.40;;;11.73;;
83145;SDS011;73037;51.110;4.706;2023-10-09T12:46:06;19.10;;;10.57;;
83145;SDS011;73037;51.110;4.706;2023-10-09T12:48:32;21.52;;;12.07;;
83145;SDS011;73037;51.110;4.706;2023-10-09T12:50:58;19.77;;;12.75;;
83145;SDS011;73037;51.110;4.706;2023-10-09T12:53:31;18.38;;;11.35;;
83145;SDS011;73037;51.110;4.706;2023-10-09T12:55:59;21.73;;;13.18;;
83145;SDS011;73037;51.110;4.706;2023-10-09T12:58:25;20.55;;;13.80;;
83145;SDS011;73037;51.110;4.706;2023-10-09T13:00:51;24.15;;;12.30;;
83145;SDS011;73037;51.110;4.706;2023-10-09T13:03:17;23.42;;;12.88;;
83145;SDS011;73037;51.110;4.706;2023-10-09T13:05:44;21.63;;;12.95;;
83145;SDS011;73037;51.110;4.706;2023-10-09T13:08:20;17.05;;;11.05;;
83145;SDS011;73037;51.110;4.706;2023-10-09T13:10:50;19.00;;;12.55;;
83145;SDS011;73037;51.110;4.706;2023-10-09T13:16:05;22.20;;;12.05;;
83145;SDS011;73037;51.110;4.706;2023-10-09T13:18:32;18.95;;;12.40;;
83145;SDS011;73037;51.110;4.706;2023-10-09T13:20:57;23.00;;;13.68;;
83145;SDS011;73037;51.110;4.706;2023-10-09T13:23:28;23.52;;;13.35;;
83145;SDS011;73037;51.110;4.706;2023-10-09T13:26:03;23.98;;;14.05;;
83145;SDS011;73037;51.110;4.706;2023-10-09T13:28:46;25.77;;;13.48;;
83145;SDS011;73037;51.110;4.706;2023-10-09T13:31:13;21.13;;;13.20;;
83145;SDS011;73037;51.110;4.706;2023-10-09T13:33:43;21.70;;;12.75;;
83145;SDS011;73037;51.110;4.706;2023-10-09T13:36:10;20.02;;;11.82;;
83145;SDS011;73037;51.110;4.706;2023-10-09T13:38:52;19.15;;;12.13;;
83145;SDS011;73037;51.110;4.706;2023-10-09T13:41:19;21.67;;;12.57;;
83145;SDS011;73037;51.110;4.706;2023-10-09T13:43:44;27.00;;;13.18;;
83145;SDS011;73037;51.110;4.706;2023-10-09T13:46:10;22.48;;;13.02;;
83145;SDS011;73037;51.110;4.706;2023-10-09T13:48:37;23.92;;;12.60;;
83145;SDS011;73037;51.110;4.706;2023-10-09T13:51:06;17.60;;;12.00;;
83145;SDS011;73037;51.110;4.706;2023-10-09T13:53:34;20.60;;;11.85;;
83145;SDS011;73037;51.110;4.706;2023-10-09T13:56:17;22.25;;;12.05;;
83145;SDS011;73037;51.110;4.706;2023-10-09T13:58:46;16.08;;;10.38;;
83145;SDS011;73037;51.110;4.706;2023-10-09T14:01:14;16.40;;;9.98;;
83145;SDS011;73037;51.110;4.706;2023-10-09T14:04:00;19.48;;;9.15;;
83145;SDS011;73037;51.110;4.706;2023-10-09T14:06:26;17.73;;;9.65;;
83145;SDS011;73037;51.110;4.706;2023-10-09T14:08:59;16.10;;;10.07;;
83145;SDS011;73037;51.110;4.706;2023-10-09T14:11:30;14.68;;;9.02;;
83145;SDS011;73037;51.110;4.706;2023-10-09T14:13:57;16.63;;;9.63;;
83145;SDS011;73037;51.110;4.706;2023-10-09T14:16:28;17.05;;;8.52;;
83145;SDS011;73037;51.110;4.706;2023-10-09T14:18:55;17.20;;;9.50;;
83145;SDS011;73037;51.110;4.706;2023-10-09T14:21:28;17.15;;;8.85;;
83145;SDS011;73037;51.110;4.706;2023-10-09T14:23:57;14.93;;;8.55;;
83145;SDS011;73037;51.110;4.706;2023-10-09T14:26:27;15.60;;;8.32;;
83145;SDS011;73037;51.110;4.706;2023-10-09T14:28:54;17.02;;;7.78;;
83145;SDS011;73037;51.110;4.706;2023-10-09T14:31:25;13.40;;;8.07;;
83145;SDS011;73037;51.110;4.706;2023-10-09T14:33:57;15.90;;;8.13;;
83145;SDS011;73037;51.110;4.706;2023-10-09T14:36:23;19.10;;;9.68;;
83145;SDS011;73037;51.110;4.706;2023-10-09T14:38:50;21.25;;;12.48;;
83145;SDS011;73037;51.110;4.706;2023-10-09T14:41:21;18.95;;;10.15;;
83145;SDS011;73037;51.110;4.706;2023-10-09T14:43:49;16.65;;;9.73;;
83145;SDS011;73037;51.110;4.706;2023-10-09T14:46:15;19.88;;;11.68;;
83145;SDS011;73037;51.110;4.706;2023-10-09T14:48:41;21.83;;;12.18;;
83145;SDS011;73037;51.110;4.706;2023-10-09T14:51:10;21.20;;;10.93;;
83145;SDS011;73037;51.110;4.706;2023-10-09T14:53:38;22.73;;;11.48;;
83145;SDS011;73037;51.110;4.706;2023-10-09T14:56:05;20.40;;;10.80;;
83145;SDS011;73037;51.110;4.706;2023-10-09T14:58:34;20.33;;;10.90;;
83145;SDS011;73037;51.110;4.706;2023-10-09T15:01:07;17.95;;;11.20;;
83145;SDS011;73037;51.110;4.706;2023-10-09T15:03:37;16.83;;;10.35;;
83145;SDS011;73037;51.110;4.706;2023-10-09T15:06:03;22.05;;;10.27;;
83145;SDS011;73037;51.110;4.706;2023-10-09T15:08:33;20.55;;;11.25;;
83145;SDS011;73037;51.110;4.706;2023-10-09T15:11:00;19.63;;;11.32;;
83145;SDS011;73037;51.110;4.706;2023-10-09T15:13:25;23.08;;;13.82;;
83145;SDS011;73037;51.110;4.706;2023-10-09T15:15:53;20.48;;;10.98;;
83145;SDS011;73037;51.110;4.706;2023-10-09T15:18:20;21.23;;;10.13;;
83145;SDS011;73037;51.110;4.706;2023-10-09T15:20:47;19.15;;;10.90;;
83145;SDS011;73037;51.110;4.706;2023-10-09T15:23:14;22.80;;;12.25;;
83145;SDS011;73037;51.110;4.706;2023-10-09T15:25:40;26.17;;;11.13;;
83145;SDS011;73037;51.110;4.706;2023-10-09T15:28:10;18.40;;;10.40;;